sensor_id;sensor_type;location;lat;lon;timestamp;P1;durP1;ratioP1;P2;durP2;ratioP2
6757;SDS011;3416;53.074;8.822;2023-09-12T00:01:08;77.77;;;58.80;;
6757;SDS011;3416;53.074;8.822;2023-09-12T00:03:35;80.97;;;59.90;;
6757;SDS011;3416;53.074;8.822;2023-09-12T00:06:02;79.93;;;56.57;;
6757;SDS011;3416;53.074;8.822;2023-09-12T00:08:29;72.43;;;54.63;;
6757;SDS011;3416;53.074;8.822;2023-09-12T00:11:00;104.50;;;68.80;;
6757;SDS011;3416;53.074;8.822;2023-09-12T00:13:28;85.37;;;60.00;;
6757;SDS011;3416;53.074;8.822;2023-09-12T00:15:55;75.33;;;54.13;;
6757;SDS011;3416;53.074;8.822;2023-09-12T00:18:23;69.27;;;54.97;;
6757;SDS011;3416;53.074;8.822;2023-09-12T00:20:50;95.97;;;63.57;;
6757;SDS011;3416;53.074;8.822;2023-09-12T00:23:18;80.50;;;55.40;;
6757;SDS011;3416;53.074;8.822;2023-09-12T00:25:46;90.10;;;59.13;;
6757;SDS011;3416;53.074;8.822;2023-09-12T00:28:13;82.97;;;59.00;;
6757;SDS011;3416;53.074;8.822;2023-09-12T00:30:40;83.43;;;56.10;;
6757;SDS011;3416;53.074;8.822;2023-09-12T00:33:07;94.30;;;59.43;;
6757;SDS011;3416;53.074;8.822;2023-09-12T00:35:35;77.57;;;55.43;;
6757;SDS011;3416;53.074;8.822;2023-09-12T00:38:02;73.07;;;53.80;;
6757;SDS011;3416;53.074;8.822;2023-09-12T00:40:29;80.70;;;59.07;;
6757;SDS011;3416;53.074;8.822;2023-09-12T00:42:56;87.03;;;56.93;;
6757;SDS011;3416;53.074;8.822;2023-09-12T00:45:24;76.40;;;53.60;;
6757;SDS011;3416;53.074;8.822;2023-09-12T00:47:55;76.43;;;51.40;;
6757;SDS011;3416;53.074;8.822;2023-09-12T00:50:25;73.53;;;50.67;;
6757;SDS011;3416;53.074;8.822;2023-09-12T00:52:54;93.97;;;62.33;;
6757;SDS011;3416;53.074;8.822;2023-09-12T00:55:31;83.53;;;59.80;;
6757;SDS011;3416;53.074;8.822;2023-09-12T00:58:00;97.53;;;65.70;;
6757;SDS011;3416;53.074;8.822;2023-09-12T01:00:28;84.80;;;56.23;;
6757;SDS011;3416;53.074;8.822;2023-09-12T01:02:55;116.10;;;71.00;;
6757;SDS011;3416;53.074;8.822;2023-09-12T01:05:23;117.20;;;71.93;;
6757;SDS011;3416;53.074;8.822;2023-09-12T01:07:50;93.97;;;61.60;;
6757;SDS011;3416;53.074;8.822;2023-09-12T01:10:18;97.57;;;65.43;;
6757;SDS011;3416;53.074;8.822;2023-09-12T01:12:45;123.97;;;74.27;;
6757;SDS011;3416;53.074;8.822;2023-09-12T01:15:12;105.80;;;69.83;;
6757;SDS011;3416;53.074;8.822;2023-09-12T01:17:40;110.63;;;72.70;;
6757;SDS011;3416;53.074;8.822;2023-09-12T01:20:08;130.30;;;70.67;;
6757;SDS011;3416;53.074;8.822;2023-09-12T01:22:53;122.50;;;73.90;;
6757;SDS011;3416;53.074;8.822;2023-09-12T01:28:24;104.53;;;67.37;;
6757;SDS011;3416;53.074;8.822;2023-09-12T01:30:56;123.70;;;75.10;;
6757;SDS011;3416;53.074;8.822;2023-09-12T01:33:25;111.00;;;75.40;;
6757;SDS011;3416;53.074;8.822;2023-09-12T01:35:52;147.33;;;84.67;;
6757;SDS011;3416;53.074;8.822;2023-09-12T01:38:22;149.43;;;87.23;;
6757;SDS011;3416;53.074;8.822;2023-09-12T01:40:50;124.03;;;79.40;;
6757;SDS011;3416;53.074;8.822;2023-09-12T01:43:19;124.70;;;76.40;;
6757;SDS011;3416;53.074;8.822;2023-09-12T01:45:52;116.83;;;76.87;;
6757;SDS011;3416;53.074;8.822;2023-09-12T01:48:23;135.40;;;81.57;;
6757;SDS011;3416;53.074;8.822;2023-09-12T01:50:55;100.43;;;69.13;;
6757;SDS011;3416;53.074;8.822;2023-09-12T01:53:23;92.40;;;68.00;;
6757;SDS011;3416;53.074;8.822;2023-09-12T01:55:50;109.73;;;72.83;;
6757;SDS011;3416;53.074;8.822;2023-09-12T01:58:17;100.07;;;67.27;;
6757;SDS011;3416;53.074;8.822;2023-09-12T02:00:44;95.27;;;65.90;;
6757;SDS011;3416;53.074;8.822;2023-09-12T02:03:12;138.03;;;84.73;;
6757;SDS011;3416;53.074;8.822;2023-09-12T02:05:39;133.73;;;87.07;;
6757;SDS011;3416;53.074;8.822;2023-09-12T02:08:07;101.77;;;74.03;;
6757;SDS011;3416;53.074;8.822;2023-09-12T02:10:33;92.40;;;68.80;;
6757;SDS011;3416;53.074;8.822;2023-09-12T02:13:00;103.97;;;70.30;;
6757;SDS011;3416;53.074;8.822;2023-09-12T02:15:27;108.17;;;74.67;;
6757;SDS011;3416;53.074;8.822;2023-09-12T02:17:54;95.23;;;67.90;;
6757;SDS011;3416;53.074;8.822;2023-09-12T02:20:22;97.70;;;68.70;;
6757;SDS011;3416;53.074;8.822;2023-09-12T02:22:49;99.23;;;72.27;;
6757;SDS011;3416;53.074;8.822;2023-09-12T02:25:16;105.53;;;72.80;;
6757;SDS011;3416;53.074;8.822;2023-09-12T02:27:43;106.63;;;72.00;;
6757;SDS011;3416;53.074;8.822;2023-09-12T02:30:10;124.80;;;77.77;;
6757;SDS011;3416;53.074;8.822;2023-09-12T02:32:37;116.23;;;75.73;;
6757;SDS011;3416;53.074;8.822;2023-09-12T02:35:04;97.63;;;66.87;;
6757;SDS011;3416;53.074;8.822;2023-09-12T02:37:32;103.97;;;70.47;;
6757;SDS011;3416;53.074;8.822;2023-09-12T02:40:00;109.67;;;75.63;;
6757;SDS011;3416;53.074;8.822;2023-09-12T02:42:27;90.37;;;67.87;;
6757;SDS011;3416;53.074;8.822;2023-09-12T02:44:54;134.93;;;80.17;;
6757;SDS011;3416;53.074;8.822;2023-09-12T02:47:20;103.37;;;71.03;;
6757;SDS011;3416;53.074;8.822;2023-09-12T02:49:47;81.47;;;63.17;;
6757;SDS011;3416;53.074;8.822;2023-09-12T02:52:14;103.00;;;72.07;;
6757;SDS011;3416;53.074;8.822;2023-09-12T02:54:42;136.10;;;83.20;;
6757;SDS011;3416;53.074;8.822;2023-09-12T02:57:10;143.73;;;84.03;;
6757;SDS011;3416;53.074;8.822;2023-09-12T02:59:37;118.40;;;77.27;;
6757;SDS011;3416;53.074;8.822;2023-09-12T03:02:04;112.10;;;74.30;;
6757;SDS011;3416;53.074;8.822;2023-09-12T03:04:33;99.13;;;71.73;;
6757;SDS011;3416;53.074;8.822;2023-09-12T03:07:01;100.67;;;71.03;;
6757;SDS011;3416;53.074;8.822;2023-09-12T03:09:28;92.83;;;64.87;;
6757;SDS011;3416;53.074;8.822;2023-09-12T03:11:56;95.57;;;65.73;;
6757;SDS011;3416;53.074;8.822;2023-09-12T03:14:23;100.50;;;69.07;;
6757;SDS011;3416;53.074;8.822;2023-09-12T03:16:50;114.33;;;71.93;;
6757;SDS011;3416;53.074;8.822;2023-09-12T03:19:16;88.17;;;63.83;;
6757;SDS011;3416;53.074;8.822;2023-09-12T03:21:43;97.10;;;71.07;;
6757;SDS011;3416;53.074;8.822;2023-09-12T03:24:10;110.83;;;75.77;;
6757;SDS011;3416;53.074;8.822;2023-09-12T03:26:37;96.33;;;67.97;;
6757;SDS011;3416;53.074;8.822;2023-09-12T03:29:05;106.73;;;71.40;;
6757;SDS011;3416;53.074;8.822;2023-09-12T03:31:32;122.67;;;80.97;;
6757;SDS011;3416;53.074;8.822;2023-09-12T03:34:00;104.00;;;72.17;;
6757;SDS011;3416;53.074;8.822;2023-09-12T03:36:27;112.30;;;74.57;;
6757;SDS011;3416;53.074;8.822;2023-09-12T03:38:53;112.43;;;74.47;;
6757;SDS011;3416;53.074;8.822;2023-09-12T03:41:20;78.67;;;58.60;;
6757;SDS011;3416;53.074;8.822;2023-09-12T03:43:50;111.43;;;72.23;;
6757;SDS011;3416;53.074;8.822;2023-09-12T03:46:18;78.10;;;58.87;;
6757;SDS011;3416;53.074;8.822;2023-09-12T03:48:45;105.97;;;74.00;;
6757;SDS011;3416;53.074;8.822;2023-09-12T03:51:12;76.90;;;58.80;;
6757;SDS011;3416;53.074;8.822;2023-09-12T03:53:39;68.23;;;55.13;;
6757;SDS011;3416;53.074;8.822;2023-09-12T03:56:06;70.27;;;56.60;;
6757;SDS011;3416;53.074;8.822;2023-09-12T03:58:35;76.97;;;57.97;;
6757;SDS011;3416;53.074;8.822;2023-09-12T04:01:02;75.97;;;57.50;;
6757;SDS011;3416;53.074;8.822;2023-09-12T04:03:30;78.60;;;59.00;;
6757;SDS011;3416;53.074;8.822;2023-09-12T04:05:57;69.17;;;54.43;;
6757;SDS011;3416;53.074;8.822;2023-09-12T04:08:23;92.60;;;65.33;;
6757;SDS011;3416;53.074;8.822;2023-09-12T04:10:50;67.53;;;50.53;;
6757;SDS011;3416;53.074;8.822;2023-09-12T04:13:17;81.07;;;60.63;;
6757;SDS011;3416;53.074;8.822;2023-09-12T04:15:44;76.13;;;55.83;;
6757;SDS011;3416;53.074;8.822;2023-09-12T04:18:13;106.00;;;70.80;;
6757;SDS011;3416;53.074;8.822;2023-09-12T04:20:41;114.93;;;73.87;;
6757;SDS011;3416;53.074;8.822;2023-09-12T04:23:08;77.57;;;55.63;;
6757;SDS011;3416;53.074;8.822;2023-09-12T04:25:35;77.07;;;57.83;;
6757;SDS011;3416;53.074;8.822;2023-09-12T04:28:02;98.57;;;70.23;;
6757;SDS011;3416;53.074;8.822;2023-09-12T04:30:29;136.77;;;79.80;;
6757;SDS011;3416;53.074;8.822;2023-09-12T04:32:56;131.43;;;78.80;;
6757;SDS011;3416;53.074;8.822;2023-09-12T04:35:23;123.87;;;75.27;;
6757;SDS011;3416;53.074;8.822;2023-09-12T04:37:51;131.27;;;80.77;;
6757;SDS011;3416;53.074;8.822;2023-09-12T04:40:18;125.03;;;74.93;;
6757;SDS011;3416;53.074;8.822;2023-09-12T04:42:45;111.80;;;70.90;;
6757;SDS011;3416;53.074;8.822;2023-09-12T04:45:12;115.97;;;68.30;;
6757;SDS011;3416;53.074;8.822;2023-09-12T04:47:39;118.33;;;75.07;;
6757;SDS011;3416;53.074;8.822;2023-09-12T04:50:07;110.67;;;71.83;;
6757;SDS011;3416;53.074;8.822;2023-09-12T04:52:36;114.93;;;75.10;;
6757;SDS011;3416;53.074;8.822;2023-09-12T04:55:05;118.10;;;74.27;;
6757;SDS011;3416;53.074;8.822;2023-09-12T04:57:32;118.07;;;72.77;;
6757;SDS011;3416;53.074;8.822;2023-09-12T04:59:59;118.07;;;71.50;;
6757;SDS011;3416;53.074;8.822;2023-09-12T05:02:26;117.30;;;71.47;;
6757;SDS011;3416;53.074;8.822;2023-09-12T05:04:53;77.57;;;58.80;;
6757;SDS011;3416;53.074;8.822;2023-09-12T05:07:20;102.70;;;67.53;;
6757;SDS011;3416;53.074;8.822;2023-09-12T05:09:47;85.07;;;59.30;;
6757;SDS011;3416;53.074;8.822;2023-09-12T05:12:15;112.87;;;71.30;;
6757;SDS011;3416;53.074;8.822;2023-09-12T05:14:42;115.93;;;74.97;;
6757;SDS011;3416;53.074;8.822;2023-09-12T05:17:09;95.57;;;65.70;;
6757;SDS011;3416;53.074;8.822;2023-09-12T05:19:36;101.13;;;70.70;;
6757;SDS011;3416;53.074;8.822;2023-09-12T05:22:03;117.00;;;71.80;;
6757;SDS011;3416;53.074;8.822;2023-09-12T05:24:30;116.03;;;71.83;;
6757;SDS011;3416;53.074;8.822;2023-09-12T05:26:57;117.13;;;70.87;;
6757;SDS011;3416;53.074;8.822;2023-09-12T05:29:25;129.77;;;77.83;;
6757;SDS011;3416;53.074;8.822;2023-09-12T05:31:52;127.73;;;80.43;;
6757;SDS011;3416;53.074;8.822;2023-09-12T05:34:19;129.43;;;78.30;;
6757;SDS011;3416;53.074;8.822;2023-09-12T05:36:46;85.60;;;62.37;;
6757;SDS011;3416;53.074;8.822;2023-09-12T05:39:13;111.00;;;74.60;;
6757;SDS011;3416;53.074;8.822;2023-09-12T05:41:39;110.77;;;70.33;;
6757;SDS011;3416;53.074;8.822;2023-09-12T05:44:06;106.57;;;71.53;;
6757;SDS011;3416;53.074;8.822;2023-09-12T05:46:35;129.20;;;76.60;;
6757;SDS011;3416;53.074;8.822;2023-09-12T05:49:01;113.53;;;72.70;;
6757;SDS011;3416;53.074;8.822;2023-09-12T05:51:29;114.90;;;70.37;;
6757;SDS011;3416;53.074;8.822;2023-09-12T05:53:56;105.80;;;70.30;;
6757;SDS011;3416;53.074;8.822;2023-09-12T05:56:23;88.77;;;65.37;;
6757;SDS011;3416;53.074;8.822;2023-09-12T05:58:50;94.93;;;68.63;;
6757;SDS011;3416;53.074;8.822;2023-09-12T06:01:16;105.43;;;70.37;;
6757;SDS011;3416;53.074;8.822;2023-09-12T06:03:46;85.80;;;65.93;;
6757;SDS011;3416;53.074;8.822;2023-09-12T06:06:14;104.70;;;70.70;;
6757;SDS011;3416;53.074;8.822;2023-09-12T06:08:41;85.43;;;60.30;;
6757;SDS011;3416;53.074;8.822;2023-09-12T06:11:08;104.90;;;70.70;;
6757;SDS011;3416;53.074;8.822;2023-09-12T06:13:35;101.87;;;67.13;;
6757;SDS011;3416;53.074;8.822;2023-09-12T06:16:02;105.70;;;71.83;;
6757;SDS011;3416;53.074;8.822;2023-09-12T06:18:30;88.57;;;60.60;;
6757;SDS011;3416;53.074;8.822;2023-09-12T06:20:59;80.20;;;57.50;;
6757;SDS011;3416;53.074;8.822;2023-09-12T06:23:28;74.00;;;57.30;;
6757;SDS011;3416;53.074;8.822;2023-09-12T06:25:55;87.87;;;63.77;;
6757;SDS011;3416;53.074;8.822;2023-09-12T06:28:25;72.83;;;58.13;;
6757;SDS011;3416;53.074;8.822;2023-09-12T06:30:52;78.63;;;60.83;;
6757;SDS011;3416;53.074;8.822;2023-09-12T06:33:19;84.00;;;62.00;;
6757;SDS011;3416;53.074;8.822;2023-09-12T06:35:47;93.83;;;63.00;;
6757;SDS011;3416;53.074;8.822;2023-09-12T06:38:16;71.20;;;57.60;;
6757;SDS011;3416;53.074;8.822;2023-09-12T06:40:43;80.10;;;61.33;;
6757;SDS011;3416;53.074;8.822;2023-09-12T06:43:10;73.13;;;58.73;;
6757;SDS011;3416;53.074;8.822;2023-09-12T06:45:36;76.97;;;62.10;;
6757;SDS011;3416;53.074;8.822;2023-09-12T06:48:04;77.90;;;64.90;;
6757;SDS011;3416;53.074;8.822;2023-09-12T06:50:31;72.37;;;55.23;;
6757;SDS011;3416;53.074;8.822;2023-09-12T06:52:58;67.07;;;57.90;;
6757;SDS011;3416;53.074;8.822;2023-09-12T06:55:27;68.37;;;57.67;;
6757;SDS011;3416;53.074;8.822;2023-09-12T06:57:54;68.33;;;56.07;;
6757;SDS011;3416;53.074;8.822;2023-09-12T07:00:21;58.73;;;50.50;;
6757;SDS011;3416;53.074;8.822;2023-09-12T07:02:49;62.80;;;51.97;;
6757;SDS011;3416;53.074;8.822;2023-09-12T07:05:16;77.37;;;55.40;;
6757;SDS011;3416;53.074;8.822;2023-09-12T07:07:43;69.00;;;56.17;;
6757;SDS011;3416;53.074;8.822;2023-09-12T07:10:10;61.70;;;54.13;;
6757;SDS011;3416;53.074;8.822;2023-09-12T07:12:38;57.20;;;51.10;;
6757;SDS011;3416;53.074;8.822;2023-09-12T07:15:07;61.90;;;52.67;;
6757;SDS011;3416;53.074;8.822;2023-09-12T07:17:34;70.30;;;58.07;;
6757;SDS011;3416;53.074;8.822;2023-09-12T07:20:01;67.33;;;53.30;;
6757;SDS011;3416;53.074;8.822;2023-09-12T07:22:29;66.97;;;53.10;;
6757;SDS011;3416;53.074;8.822;2023-09-12T07:24:59;70.13;;;55.60;;
6757;SDS011;3416;53.074;8.822;2023-09-12T07:27:26;68.77;;;54.27;;
6757;SDS011;3416;53.074;8.822;2023-09-12T07:29:56;69.80;;;53.97;;
6757;SDS011;3416;53.074;8.822;2023-09-12T07:32:23;53.50;;;47.60;;
6757;SDS011;3416;53.074;8.822;2023-09-12T07:34:50;60.60;;;51.00;;
6757;SDS011;3416;53.074;8.822;2023-09-12T07:37:17;60.83;;;49.60;;
6757;SDS011;3416;53.074;8.822;2023-09-12T07:39:44;49.93;;;44.53;;
6757;SDS011;3416;53.074;8.822;2023-09-12T07:42:11;49.90;;;43.67;;
6757;SDS011;3416;53.074;8.822;2023-09-12T07:44:38;47.60;;;42.50;;
6757;SDS011;3416;53.074;8.822;2023-09-12T07:47:07;54.27;;;45.30;;
6757;SDS011;3416;53.074;8.822;2023-09-12T07:49:33;51.87;;;42.60;;
6757;SDS011;3416;53.074;8.822;2023-09-12T07:52:01;49.00;;;43.50;;
6757;SDS011;3416;53.074;8.822;2023-09-12T07:54:30;48.83;;;41.67;;
6757;SDS011;3416;53.074;8.822;2023-09-12T07:56:57;52.40;;;44.83;;
6757;SDS011;3416;53.074;8.822;2023-09-12T07:59:25;46.10;;;40.90;;
6757;SDS011;3416;53.074;8.822;2023-09-12T08:01:54;47.33;;;39.90;;
6757;SDS011;3416;53.074;8.822;2023-09-12T08:04:24;47.83;;;42.90;;
6757;SDS011;3416;53.074;8.822;2023-09-12T08:06:51;48.70;;;39.40;;
6757;SDS011;3416;53.074;8.822;2023-09-12T08:09:18;41.37;;;36.00;;
6757;SDS011;3416;53.074;8.822;2023-09-12T08:11:45;48.33;;;39.93;;
6757;SDS011;3416;53.074;8.822;2023-09-12T08:14:13;49.73;;;40.50;;
6757;SDS011;3416;53.074;8.822;2023-09-12T08:16:40;45.23;;;40.50;;
6757;SDS011;3416;53.074;8.822;2023-09-12T08:19:07;40.37;;;36.30;;
6757;SDS011;3416;53.074;8.822;2023-09-12T08:21:35;44.90;;;39.33;;
6757;SDS011;3416;53.074;8.822;2023-09-12T08:24:02;46.03;;;38.20;;
6757;SDS011;3416;53.074;8.822;2023-09-12T08:26:29;39.83;;;35.70;;
6757;SDS011;3416;53.074;8.822;2023-09-12T08:28:56;33.77;;;30.33;;
6757;SDS011;3416;53.074;8.822;2023-09-12T08:31:23;42.40;;;36.27;;
6757;SDS011;3416;53.074;8.822;2023-09-12T08:33:52;34.93;;;31.30;;
6757;SDS011;3416;53.074;8.822;2023-09-12T08:36:19;31.87;;;28.27;;
6757;SDS011;3416;53.074;8.822;2023-09-12T08:38:47;38.33;;;34.33;;
6757;SDS011;3416;53.074;8.822;2023-09-12T08:41:14;31.33;;;28.03;;
6757;SDS011;3416;53.074;8.822;2023-09-12T08:43:41;34.83;;;31.23;;
6757;SDS011;3416;53.074;8.822;2023-09-12T08:46:09;35.10;;;31.63;;
6757;SDS011;3416;53.074;8.822;2023-09-12T08:48:37;36.20;;;32.60;;
6757;SDS011;3416;53.074;8.822;2023-09-12T08:51:06;34.97;;;31.60;;
6757;SDS011;3416;53.074;8.822;2023-09-12T08:53:34;35.97;;;32.37;;
6757;SDS011;3416;53.074;8.822;2023-09-12T08:56:03;33.93;;;30.10;;
6757;SDS011;3416;53.074;8.822;2023-09-12T08:58:31;36.13;;;32.20;;
6757;SDS011;3416;53.074;8.822;2023-09-12T09:01:00;29.87;;;27.07;;
6757;SDS011;3416;53.074;8.822;2023-09-12T09:03:29;35.90;;;32.30;;
6757;SDS011;3416;53.074;8.822;2023-09-12T09:05:56;32.27;;;29.07;;
6757;SDS011;3416;53.074;8.822;2023-09-12T09:08:26;32.40;;;29.00;;
6757;SDS011;3416;53.074;8.822;2023-09-12T09:10:54;35.03;;;31.50;;
6757;SDS011;3416;53.074;8.822;2023-09-12T09:13:25;35.70;;;32.00;;
6757;SDS011;3416;53.074;8.822;2023-09-12T09:18:50;33.83;;;30.43;;
6757;SDS011;3416;53.074;8.822;2023-09-12T09:21:17;34.93;;;31.33;;
6757;SDS011;3416;53.074;8.822;2023-09-12T09:23:45;29.27;;;26.57;;
6757;SDS011;3416;53.074;8.822;2023-09-12T09:26:13;36.93;;;33.43;;
6757;SDS011;3416;53.074;8.822;2023-09-12T09:28:42;34.40;;;31.00;;
6757;SDS011;3416;53.074;8.822;2023-09-12T09:31:12;36.93;;;33.00;;
6757;SDS011;3416;53.074;8.822;2023-09-12T09:33:39;41.50;;;37.20;;
6757;SDS011;3416;53.074;8.822;2023-09-12T09:36:10;37.07;;;33.37;;
6757;SDS011;3416;53.074;8.822;2023-09-12T09:38:37;39.20;;;35.30;;
6757;SDS011;3416;53.074;8.822;2023-09-12T09:41:06;43.37;;;38.23;;
6757;SDS011;3416;53.074;8.822;2023-09-12T09:43:33;43.23;;;38.73;;
6757;SDS011;3416;53.074;8.822;2023-09-12T09:46:03;45.90;;;41.30;;
6757;SDS011;3416;53.074;8.822;2023-09-12T09:48:30;44.10;;;39.50;;
6757;SDS011;3416;53.074;8.822;2023-09-12T09:50:59;41.40;;;37.17;;
6757;SDS011;3416;53.074;8.822;2023-09-12T09:53:28;45.97;;;41.33;;
6757;SDS011;3416;53.074;8.822;2023-09-12T09:56:08;44.40;;;38.80;;
6757;SDS011;3416;53.074;8.822;2023-09-12T09:58:36;49.37;;;42.13;;
6757;SDS011;3416;53.074;8.822;2023-09-12T10:01:05;42.47;;;37.80;;
6757;SDS011;3416;53.074;8.822;2023-09-12T10:03:34;39.63;;;35.20;;
6757;SDS011;3416;53.074;8.822;2023-09-12T10:06:03;42.97;;;38.27;;
6757;SDS011;3416;53.074;8.822;2023-09-12T10:08:32;38.37;;;34.47;;
6757;SDS011;3416;53.074;8.822;2023-09-12T10:11:00;37.17;;;33.47;;
6757;SDS011;3416;53.074;8.822;2023-09-12T10:13:28;40.43;;;36.23;;
6757;SDS011;3416;53.074;8.822;2023-09-12T10:15:58;39.93;;;34.87;;
6757;SDS011;3416;53.074;8.822;2023-09-12T10:18:29;37.47;;;33.70;;
6757;SDS011;3416;53.074;8.822;2023-09-12T10:21:04;38.67;;;34.63;;
6757;SDS011;3416;53.074;8.822;2023-09-12T10:23:37;40.13;;;35.90;;
6757;SDS011;3416;53.074;8.822;2023-09-12T10:26:09;40.70;;;36.60;;
6757;SDS011;3416;53.074;8.822;2023-09-12T10:28:39;35.90;;;32.40;;
6757;SDS011;3416;53.074;8.822;2023-09-12T10:31:08;37.17;;;33.47;;
6757;SDS011;3416;53.074;8.822;2023-09-12T10:33:37;37.17;;;33.20;;
6757;SDS011;3416;53.074;8.822;2023-09-12T10:36:05;37.77;;;33.80;;
6757;SDS011;3416;53.074;8.822;2023-09-12T10:38:35;41.50;;;37.30;;
6757;SDS011;3416;53.074;8.822;2023-09-12T10:41:06;39.33;;;35.43;;
6757;SDS011;3416;53.074;8.822;2023-09-12T10:43:35;40.07;;;36.03;;
6757;SDS011;3416;53.074;8.822;2023-09-12T10:46:04;41.30;;;36.47;;
6757;SDS011;3416;53.074;8.822;2023-09-12T10:48:32;39.27;;;35.03;;
6757;SDS011;3416;53.074;8.822;2023-09-12T10:51:02;36.13;;;32.80;;
6757;SDS011;3416;53.074;8.822;2023-09-12T10:53:30;35.20;;;31.77;;
6757;SDS011;3416;53.074;8.822;2023-09-12T10:55:58;38.00;;;33.97;;
6757;SDS011;3416;53.074;8.822;2023-09-12T10:58:26;36.60;;;32.90;;
6757;SDS011;3416;53.074;8.822;2023-09-12T11:03:49;35.77;;;31.33;;
6757;SDS011;3416;53.074;8.822;2023-09-12T11:06:24;34.13;;;30.73;;
6757;SDS011;3416;53.074;8.822;2023-09-12T11:09:15;34.50;;;31.00;;
6757;SDS011;3416;53.074;8.822;2023-09-12T11:11:45;37.97;;;34.17;;
6757;SDS011;3416;53.074;8.822;2023-09-12T11:14:13;34.63;;;31.30;;
6757;SDS011;3416;53.074;8.822;2023-09-12T11:16:41;37.30;;;33.50;;
6757;SDS011;3416;53.074;8.822;2023-09-12T11:19:13;33.27;;;29.77;;
6757;SDS011;3416;53.074;8.822;2023-09-12T11:21:47;37.47;;;33.63;;
6757;SDS011;3416;53.074;8.822;2023-09-12T11:24:16;36.27;;;32.67;;
6757;SDS011;3416;53.074;8.822;2023-09-12T11:26:53;32.60;;;29.23;;
6757;SDS011;3416;53.074;8.822;2023-09-12T11:29:22;32.33;;;29.10;;
6757;SDS011;3416;53.074;8.822;2023-09-12T11:31:54;35.33;;;31.53;;
6757;SDS011;3416;53.074;8.822;2023-09-12T11:34:24;32.53;;;29.30;;
6757;SDS011;3416;53.074;8.822;2023-09-12T11:36:55;34.83;;;31.30;;
6757;SDS011;3416;53.074;8.822;2023-09-12T11:39:26;31.90;;;28.90;;
6757;SDS011;3416;53.074;8.822;2023-09-12T11:41:55;29.70;;;26.03;;
6757;SDS011;3416;53.074;8.822;2023-09-12T11:44:23;28.47;;;25.77;;
6757;SDS011;3416;53.074;8.822;2023-09-12T11:46:51;24.90;;;22.43;;
6757;SDS011;3416;53.074;8.822;2023-09-12T11:49:18;28.20;;;25.50;;
6757;SDS011;3416;53.074;8.822;2023-09-12T11:51:49;30.40;;;27.40;;
6757;SDS011;3416;53.074;8.822;2023-09-12T11:54:19;31.50;;;28.40;;
6757;SDS011;3416;53.074;8.822;2023-09-12T11:56:50;30.40;;;27.30;;
6757;SDS011;3416;53.074;8.822;2023-09-12T11:59:21;30.27;;;27.10;;
6757;SDS011;3416;53.074;8.822;2023-09-12T12:01:48;31.47;;;28.43;;
6757;SDS011;3416;53.074;8.822;2023-09-12T12:04:16;32.40;;;29.20;;
6757;SDS011;3416;53.074;8.822;2023-09-12T12:06:42;29.97;;;26.77;;
6757;SDS011;3416;53.074;8.822;2023-09-12T12:09:10;29.13;;;26.23;;
6757;SDS011;3416;53.074;8.822;2023-09-12T12:11:39;27.93;;;25.23;;
6757;SDS011;3416;53.074;8.822;2023-09-12T12:14:10;26.00;;;23.53;;
6757;SDS011;3416;53.074;8.822;2023-09-12T12:16:42;28.93;;;25.93;;
6757;SDS011;3416;53.074;8.822;2023-09-12T12:19:10;31.10;;;27.87;;
6757;SDS011;3416;53.074;8.822;2023-09-12T12:21:37;27.30;;;24.60;;
6757;SDS011;3416;53.074;8.822;2023-09-12T12:24:04;29.43;;;26.67;;
6757;SDS011;3416;53.074;8.822;2023-09-12T12:26:33;31.07;;;28.10;;
6757;SDS011;3416;53.074;8.822;2023-09-12T12:29:02;28.90;;;26.10;;
6757;SDS011;3416;53.074;8.822;2023-09-12T12:31:30;26.03;;;23.53;;
6757;SDS011;3416;53.074;8.822;2023-09-12T12:33:57;29.43;;;26.30;;
6757;SDS011;3416;53.074;8.822;2023-09-12T12:36:25;29.70;;;26.77;;
6757;SDS011;3416;53.074;8.822;2023-09-12T12:38:52;30.70;;;27.63;;
6757;SDS011;3416;53.074;8.822;2023-09-12T12:41:23;25.43;;;23.03;;
6757;SDS011;3416;53.074;8.822;2023-09-12T12:43:57;22.87;;;20.77;;
6757;SDS011;3416;53.074;8.822;2023-09-12T12:46:27;24.10;;;21.80;;
6757;SDS011;3416;53.074;8.822;2023-09-12T12:48:54;24.10;;;21.83;;
6757;SDS011;3416;53.074;8.822;2023-09-12T12:51:22;23.53;;;21.23;;
6757;SDS011;3416;53.074;8.822;2023-09-12T12:53:50;21.60;;;19.40;;
6757;SDS011;3416;53.074;8.822;2023-09-12T12:56:18;19.20;;;17.17;;
6757;SDS011;3416;53.074;8.822;2023-09-12T12:58:47;18.93;;;17.20;;
6757;SDS011;3416;53.074;8.822;2023-09-12T13:01:15;20.43;;;18.53;;
6757;SDS011;3416;53.074;8.822;2023-09-12T13:03:43;21.30;;;19.40;;
6757;SDS011;3416;53.074;8.822;2023-09-12T13:06:11;23.20;;;21.00;;
6757;SDS011;3416;53.074;8.822;2023-09-12T13:08:40;21.27;;;19.10;;
6757;SDS011;3416;53.074;8.822;2023-09-12T13:11:08;21.03;;;18.30;;
6757;SDS011;3416;53.074;8.822;2023-09-12T13:13:35;18.30;;;16.57;;
6757;SDS011;3416;53.074;8.822;2023-09-12T13:16:02;18.67;;;16.97;;
6757;SDS011;3416;53.074;8.822;2023-09-12T13:18:37;17.80;;;16.00;;
6757;SDS011;3416;53.074;8.822;2023-09-12T13:21:05;17.67;;;15.97;;
6757;SDS011;3416;53.074;8.822;2023-09-12T13:23:33;19.10;;;17.40;;
6757;SDS011;3416;53.074;8.822;2023-09-12T13:26:00;17.87;;;16.07;;
6757;SDS011;3416;53.074;8.822;2023-09-12T13:28:28;16.67;;;15.27;;
6757;SDS011;3416;53.074;8.822;2023-09-12T13:30:56;18.80;;;17.00;;
6757;SDS011;3416;53.074;8.822;2023-09-12T13:33:23;22.43;;;20.33;;
6757;SDS011;3416;53.074;8.822;2023-09-12T13:35:52;16.80;;;15.10;;
6757;SDS011;3416;53.074;8.822;2023-09-12T13:38:20;18.87;;;17.17;;
6757;SDS011;3416;53.074;8.822;2023-09-12T13:40:48;21.33;;;19.33;;
6757;SDS011;3416;53.074;8.822;2023-09-12T13:43:15;17.73;;;16.07;;
6757;SDS011;3416;53.074;8.822;2023-09-12T13:45:42;19.80;;;18.07;;
6757;SDS011;3416;53.074;8.822;2023-09-12T13:48:09;19.33;;;17.63;;
6757;SDS011;3416;53.074;8.822;2023-09-12T13:50:39;17.53;;;15.93;;
6757;SDS011;3416;53.074;8.822;2023-09-12T13:53:08;14.83;;;13.43;;
6757;SDS011;3416;53.074;8.822;2023-09-12T13:55:36;16.80;;;15.20;;
6757;SDS011;3416;53.074;8.822;2023-09-12T13:58:04;17.90;;;16.30;;
6757;SDS011;3416;53.074;8.822;2023-09-12T14:00:32;17.80;;;16.10;;
6757;SDS011;3416;53.074;8.822;2023-09-12T14:02:59;20.03;;;17.97;;
6757;SDS011;3416;53.074;8.822;2023-09-12T14:05:26;16.00;;;14.47;;
6757;SDS011;3416;53.074;8.822;2023-09-12T14:07:54;20.57;;;18.57;;
6757;SDS011;3416;53.074;8.822;2023-09-12T14:10:20;18.73;;;16.90;;
6757;SDS011;3416;53.074;8.822;2023-09-12T14:12:49;19.53;;;17.73;;
6757;SDS011;3416;53.074;8.822;2023-09-12T14:15:16;19.57;;;17.73;;
6757;SDS011;3416;53.074;8.822;2023-09-12T14:17:42;19.73;;;17.73;;
6757;SDS011;3416;53.074;8.822;2023-09-12T14:20:10;19.23;;;17.43;;
6757;SDS011;3416;53.074;8.822;2023-09-12T14:22:40;17.43;;;15.77;;
6757;SDS011;3416;53.074;8.822;2023-09-12T14:25:07;18.30;;;16.30;;
6757;SDS011;3416;53.074;8.822;2023-09-12T14:27:39;17.47;;;15.87;;
6757;SDS011;3416;53.074;8.822;2023-09-12T14:30:09;17.67;;;15.97;;
6757;SDS011;3416;53.074;8.822;2023-09-12T14:32:38;18.67;;;17.07;;
6757;SDS011;3416;53.074;8.822;2023-09-12T14:35:05;19.03;;;17.20;;
6757;SDS011;3416;53.074;8.822;2023-09-12T14:37:32;20.20;;;18.30;;
6757;SDS011;3416;53.074;8.822;2023-09-12T14:40:04;19.30;;;17.40;;
6757;SDS011;3416;53.074;8.822;2023-09-12T14:42:31;19.80;;;17.90;;
6757;SDS011;3416;53.074;8.822;2023-09-12T14:44:58;18.03;;;16.23;;
6757;SDS011;3416;53.074;8.822;2023-09-12T14:47:26;22.03;;;19.77;;
6757;SDS011;3416;53.074;8.822;2023-09-12T14:49:57;22.03;;;20.00;;
6757;SDS011;3416;53.074;8.822;2023-09-12T14:52:24;24.40;;;22.13;;
6757;SDS011;3416;53.074;8.822;2023-09-12T14:54:52;28.30;;;25.30;;
6757;SDS011;3416;53.074;8.822;2023-09-12T14:57:19;25.03;;;22.60;;
6757;SDS011;3416;53.074;8.822;2023-09-12T14:59:47;29.50;;;26.70;;